createdAt,value
2022-08-23T00:02:25.704Z,2.87
2022-08-23T00:05:07.846Z,2.77
2022-08-23T00:07:41.331Z,2.53
2022-08-23T00:10:13.116Z,3.20
2022-08-23T00:12:40.526Z,2.83
2022-08-23T00:15:08.832Z,3.47
2022-08-23T00:17:36.239Z,2.93
2022-08-23T00:20:10.143Z,2.83
2022-08-23T00:22:37.438Z,3.10
2022-08-23T00:25:05.569Z,3.10
2022-08-23T00:27:33.445Z,3.00
2022-08-23T00:30:00.263Z,3.20
2022-08-23T00:32:32.726Z,3.27
2022-08-23T00:35:00.411Z,3.37
2022-08-23T00:37:28.366Z,2.70
2022-08-23T00:39:55.038Z,2.80
2022-08-23T00:42:49.689Z,3.23
2022-08-23T00:45:37.097Z,3.20
2022-08-23T00:48:04.229Z,2.70
2022-08-23T00:50:35.991Z,3.30
2022-08-23T00:53:16.661Z,2.93
2022-08-23T00:55:45.505Z,3.37
2022-08-23T00:58:14.612Z,3.07
2022-08-23T01:00:41.292Z,3.17
2022-08-23T01:03:09.454Z,2.87
2022-08-23T01:06:11.012Z,3.43
2022-08-23T01:08:38.645Z,3.70
2022-08-23T01:11:11.985Z,3.17
2022-08-23T01:13:53.494Z,2.83
2022-08-23T01:16:27.041Z,2.77
2022-08-23T01:18:55.000Z,2.90
2022-08-23T01:21:30.340Z,2.87
2022-08-23T01:24:01.001Z,3.20
2022-08-23T01:26:28.331Z,2.97
2022-08-23T01:28:54.905Z,3.03
2022-08-23T01:31:23.816Z,3.07
2022-08-23T01:33:54.726Z,3.10
2022-08-23T01:36:22.115Z,2.90
2022-08-23T01:38:49.167Z,3.03
2022-08-23T01:41:15.728Z,2.83
2022-08-23T01:43:42.330Z,3.27
2022-08-23T01:46:12.039Z,3.17
2022-08-23T01:48:38.742Z,3.10
2022-08-23T01:51:05.927Z,2.77
2022-08-23T01:53:32.454Z,2.97
2022-08-23T01:55:59.173Z,3.33
2022-08-23T01:58:25.698Z,3.43
2022-08-23T02:00:52.237Z,2.90
2022-08-23T02:03:18.763Z,2.93
2022-08-23T02:05:45.923Z,3.10
2022-08-23T02:08:31.821Z,2.80
2022-08-23T02:10:59.157Z,3.00
2022-08-23T02:13:25.851Z,3.47
2022-08-23T02:15:52.571Z,3.10
2022-08-23T02:18:20.676Z,3.43
2022-08-23T02:20:50.051Z,2.80
2022-08-23T02:23:17.436Z,3.20
2022-08-23T02:25:44.386Z,3.20
2022-08-23T02:28:11.089Z,3.23
2022-08-23T02:30:37.736Z,3.10
2022-08-23T02:33:04.404Z,3.10
2022-08-23T02:35:33.810Z,3.07
2022-08-23T02:38:05.382Z,3.40
2022-08-23T02:40:31.982Z,3.23
2022-08-23T02:43:00.059Z,3.03
2022-08-23T02:45:27.807Z,3.20
2022-08-23T02:47:54.529Z,3.57
2022-08-23T02:50:21.485Z,3.40
2022-08-23T02:52:48.062Z,3.20
2022-08-23T02:55:14.888Z,3.30
2022-08-23T02:57:41.482Z,3.30
2022-08-23T03:00:10.446Z,3.50
2022-08-23T03:02:38.399Z,3.57
2022-08-23T03:05:06.445Z,3.20
2022-08-23T03:07:33.160Z,3.57
2022-08-23T03:10:01.351Z,3.60
2022-08-23T03:12:28.344Z,3.33
2022-08-23T03:14:54.914Z,3.50
2022-08-23T03:17:21.486Z,3.07
2022-08-23T03:19:48.512Z,3.53
2022-08-23T03:22:15.265Z,3.00
2022-08-23T03:24:41.834Z,3.37
2022-08-23T03:27:08.561Z,2.87
2022-08-23T03:29:35.249Z,3.03
2022-08-23T03:32:02.194Z,3.40
2022-08-23T03:34:29.037Z,3.30
2022-08-23T03:36:56.307Z,3.47
2022-08-23T03:39:23.034Z,3.40
2022-08-23T03:41:49.534Z,3.33
2022-08-23T03:44:16.212Z,3.53
2022-08-23T03:46:42.756Z,3.40
2022-08-23T03:49:09.270Z,3.03
2022-08-23T03:51:36.289Z,3.53
2022-08-23T03:54:03.316Z,3.30
2022-08-23T03:56:39.070Z,3.20
2022-08-23T03:59:11.582Z,3.43
2022-08-23T04:01:38.179Z,3.43
2022-08-23T04:04:05.272Z,3.47
2022-08-23T04:06:33.163Z,3.10
2022-08-23T04:09:00.002Z,3.60
2022-08-23T04:11:27.645Z,3.53
2022-08-23T04:13:54.189Z,3.17
2022-08-23T04:16:20.798Z,3.40
2022-08-23T04:18:47.573Z,3.80
2022-08-23T04:21:17.370Z,3.57
2022-08-23T04:23:44.613Z,3.57
2022-08-23T04:26:11.523Z,2.93
2022-08-23T04:28:38.929Z,3.20
2022-08-23T04:31:06.362Z,3.10
2022-08-23T04:33:34.452Z,3.13
2022-08-23T04:36:01.773Z,3.30
2022-08-23T04:38:28.547Z,3.57
2022-08-23T04:41:14.207Z,3.50
2022-08-23T04:43:41.225Z,3.03
2022-08-23T04:46:07.790Z,3.33
2022-08-23T04:48:35.389Z,3.23
2022-08-23T04:51:02.215Z,3.13
2022-08-23T04:53:35.016Z,3.20
2022-08-23T04:56:03.169Z,3.20
2022-08-23T04:58:30.900Z,3.30
2022-08-23T05:00:59.479Z,3.67
2022-08-23T05:03:27.148Z,3.67
2022-08-23T05:05:54.470Z,3.23
2022-08-23T05:08:21.083Z,3.43
2022-08-23T05:10:47.653Z,3.33
2022-08-23T05:13:14.142Z,3.50
2022-08-23T05:15:40.707Z,3.23
2022-08-23T05:18:07.334Z,3.23
2022-08-23T05:20:34.062Z,3.30
2022-08-23T05:23:01.208Z,3.40
2022-08-23T05:25:47.966Z,3.00
2022-08-23T05:28:14.651Z,3.60
2022-08-23T05:30:41.425Z,3.20
2022-08-23T05:33:14.422Z,3.37
2022-08-23T05:35:40.925Z,3.03
2022-08-23T05:38:07.434Z,2.90
2022-08-23T05:40:33.945Z,3.10
2022-08-23T05:43:00.426Z,3.00
2022-08-23T05:45:27.037Z,3.00
2022-08-23T05:47:54.025Z,3.20
2022-08-23T05:50:26.928Z,3.20
2022-08-23T05:52:53.417Z,2.77
2022-08-23T05:55:19.910Z,3.20
2022-08-23T05:57:49.033Z,3.33
2022-08-23T06:00:15.791Z,3.27
2022-08-23T06:02:43.002Z,3.20
2022-08-23T06:05:09.790Z,3.10
2022-08-23T06:07:37.575Z,2.97
2022-08-23T06:10:04.972Z,3.07
2022-08-23T06:12:32.115Z,2.87
2022-08-23T06:14:58.615Z,3.00
2022-08-23T06:17:25.318Z,2.97
2022-08-23T06:19:51.826Z,3.20
2022-08-23T06:22:18.843Z,3.10
2022-08-23T06:24:45.371Z,3.07
2022-08-23T06:27:12.460Z,2.50
2022-08-23T06:29:39.496Z,2.90
2022-08-23T06:32:06.590Z,3.10
2022-08-23T06:34:35.839Z,2.80
2022-08-23T06:37:04.832Z,2.80
2022-08-23T06:39:36.776Z,2.40
2022-08-23T06:42:38.257Z,2.77
2022-08-23T06:45:03.006Z,2.70
2022-08-23T06:47:29.516Z,2.83
2022-08-23T06:49:58.405Z,2.60
2022-08-23T06:52:27.318Z,2.40
2022-08-23T06:54:53.927Z,2.70
2022-08-23T06:57:20.628Z,2.47
2022-08-23T06:59:51.047Z,2.53
2022-08-23T07:02:17.638Z,2.47
2022-08-23T07:04:44.361Z,2.83
2022-08-23T07:07:12.075Z,2.50
2022-08-23T07:09:39.671Z,2.90
2022-08-23T07:12:06.686Z,2.13
2022-08-23T07:14:33.588Z,2.67
2022-08-23T07:17:01.445Z,2.87
2022-08-23T07:19:31.130Z,2.30
2022-08-23T07:22:00.335Z,2.60
2022-08-23T07:24:32.102Z,2.43
2022-08-23T07:27:01.242Z,2.23
2022-08-23T07:29:28.689Z,2.40
2022-08-23T07:31:56.442Z,2.37
2022-08-23T07:34:24.235Z,2.20
2022-08-23T07:36:52.492Z,2.40
2022-08-23T07:39:20.563Z,2.47
2022-08-23T07:41:47.131Z,2.60
2022-08-23T07:44:18.520Z,2.30
2022-08-23T07:46:46.483Z,2.30
2022-08-23T07:49:13.705Z,2.60
2022-08-23T07:51:41.751Z,2.30
2022-08-23T07:54:10.409Z,2.43
2022-08-23T07:56:37.370Z,2.00
2022-08-23T07:59:05.639Z,2.30
2022-08-23T08:01:32.401Z,2.13
2022-08-23T08:04:00.506Z,2.50
2022-08-23T08:06:29.183Z,2.50
2022-08-23T08:08:56.556Z,2.33
2022-08-23T08:11:25.518Z,2.77
2022-08-23T08:13:52.426Z,2.30
2022-08-23T08:16:33.034Z,2.20
2022-08-23T08:19:01.227Z,2.40
2022-08-23T08:21:28.869Z,2.20
2022-08-23T08:23:57.490Z,2.40
2022-08-23T08:26:25.021Z,2.17
2022-08-23T08:28:52.292Z,2.37
2022-08-23T08:31:18.847Z,2.17
2022-08-23T08:33:45.358Z,2.27
2022-08-23T08:36:31.179Z,2.00
2022-08-23T08:39:00.613Z,2.10
2022-08-23T08:42:00.397Z,2.10
2022-08-23T08:44:41.590Z,2.30
2022-08-23T08:47:18.096Z,2.10
2022-08-23T08:49:53.240Z,2.10
2022-08-23T08:52:26.437Z,2.13
2022-08-23T08:55:02.245Z,1.87
2022-08-23T08:57:32.367Z,1.80
2022-08-23T09:00:01.089Z,2.00
2022-08-23T09:02:33.770Z,2.00
2022-08-23T09:05:08.286Z,1.83
2022-08-23T09:07:40.776Z,1.90
2022-08-23T09:10:10.319Z,2.20
2022-08-23T09:12:49.866Z,2.03
2022-08-23T09:15:16.453Z,1.80
2022-08-23T09:17:46.682Z,2.20
2022-08-23T09:20:15.102Z,1.70
2022-08-23T09:22:45.397Z,2.10
2022-08-23T09:25:13.662Z,1.80
2022-08-23T09:27:43.085Z,1.63
2022-08-23T09:30:14.339Z,1.97
2022-08-23T09:32:44.162Z,1.70
2022-08-23T09:35:25.776Z,1.63
2022-08-23T09:38:04.646Z,1.77
2022-08-23T09:40:34.223Z,2.03
2022-08-23T09:43:08.595Z,1.87
2022-08-23T09:45:38.185Z,1.70
2022-08-23T09:48:06.429Z,1.83
2022-08-23T09:50:43.303Z,1.90
2022-08-23T09:53:12.375Z,1.53
2022-08-23T09:55:38.882Z,1.97
2022-08-23T09:58:27.166Z,1.70
2022-08-23T10:01:05.732Z,1.60
2022-08-23T10:03:32.211Z,1.80
2022-08-23T10:06:00.953Z,1.80
2022-08-23T10:08:40.898Z,1.60
2022-08-23T10:11:24.014Z,1.67
2022-08-23T10:13:51.310Z,1.93
2022-08-23T10:16:48.227Z,1.70
2022-08-23T10:19:51.229Z,1.80
2022-08-23T10:22:24.032Z,1.67
2022-08-23T10:25:02.668Z,2.03
2022-08-23T10:28:12.157Z,1.70
2022-08-23T10:31:02.740Z,1.60
2022-08-23T10:33:44.058Z,1.63
2022-08-23T10:36:35.522Z,1.67
2022-08-23T10:39:05.034Z,1.80
2022-08-23T10:41:46.847Z,1.90
2022-08-23T10:44:19.300Z,1.63
2022-08-23T10:47:05.933Z,2.13
2022-08-23T10:49:36.609Z,1.70
2022-08-23T10:52:06.164Z,1.93
2022-08-23T10:54:49.025Z,1.80
2022-08-23T10:57:17.148Z,1.60
2022-08-23T10:59:46.055Z,1.60
2022-08-23T11:02:33.664Z,1.73
2022-08-23T11:05:07.727Z,1.80
2022-08-23T11:07:37.458Z,1.83
2022-08-23T11:10:31.878Z,1.80
2022-08-23T11:13:02.440Z,1.80
2022-08-23T11:15:44.647Z,1.63
2022-08-23T11:18:37.714Z,1.80
2022-08-23T11:21:26.279Z,1.90
2022-08-23T11:23:58.705Z,1.90
2022-08-23T11:26:29.495Z,1.83
2022-08-23T11:29:08.216Z,1.70
2022-08-23T11:31:36.644Z,1.70
2022-08-23T11:34:06.241Z,2.03
2022-08-23T11:36:34.333Z,1.63
2022-08-23T11:39:05.382Z,1.57
2022-08-23T11:41:53.866Z,1.83
2022-08-23T11:44:28.170Z,1.83
2022-08-23T11:46:55.437Z,1.60
2022-08-23T11:49:44.901Z,1.50
2022-08-23T11:52:32.186Z,1.63
2022-08-23T11:55:15.786Z,1.70
2022-08-23T11:57:54.813Z,1.47
2022-08-23T12:00:27.733Z,1.70
2022-08-23T12:03:05.024Z,1.83
2022-08-23T12:05:34.647Z,1.50
2022-08-23T12:08:01.284Z,1.50
2022-08-23T12:10:40.355Z,1.40
2022-08-23T12:13:27.948Z,1.57
2022-08-23T12:16:16.542Z,1.50
2022-08-23T12:18:47.643Z,1.60
2022-08-23T12:21:21.197Z,1.73
2022-08-23T12:23:53.033Z,1.40
2022-08-23T12:26:31.019Z,1.40
2022-08-23T12:29:04.163Z,1.70
2022-08-23T12:31:39.751Z,1.60
2022-08-23T12:34:25.959Z,1.43
2022-08-23T12:37:14.360Z,1.60
2022-08-23T12:39:51.063Z,1.60
2022-08-23T12:42:20.938Z,1.40
2022-08-23T12:45:02.538Z,1.50
2022-08-23T12:47:29.561Z,1.43
2022-08-23T12:50:09.262Z,1.63
2022-08-23T12:52:37.543Z,1.47
2022-08-23T12:55:14.065Z,1.80
2022-08-23T12:57:43.009Z,1.50
2022-08-23T13:00:35.982Z,1.50
2022-08-23T13:03:02.790Z,1.40
2022-08-23T13:05:39.955Z,1.50
2022-08-23T13:08:16.644Z,1.47
2022-08-23T13:10:44.298Z,1.40
2022-08-23T13:13:13.025Z,1.40
2022-08-23T13:15:58.532Z,1.70
2022-08-23T13:18:40.322Z,1.63
2022-08-23T13:21:28.733Z,1.60
2022-08-23T13:24:47.290Z,1.63
2022-08-23T13:27:28.856Z,1.80
2022-08-23T13:30:10.882Z,1.40
2022-08-23T13:32:43.557Z,1.70
2022-08-23T13:35:38.883Z,1.67
2022-08-23T13:38:08.512Z,1.70
2022-08-23T13:40:54.535Z,1.70
2022-08-23T13:43:26.790Z,1.50
2022-08-23T13:45:56.310Z,1.80
2022-08-23T13:48:32.252Z,1.90
2022-08-23T13:51:31.024Z,1.60
2022-08-23T13:53:59.380Z,1.77
2022-08-23T13:56:27.566Z,1.57
2022-08-23T13:58:59.005Z,1.57
2022-08-23T14:01:25.638Z,1.50
2022-08-23T14:03:52.814Z,1.67
2022-08-23T14:06:19.879Z,1.30
2022-08-23T14:08:48.273Z,1.73
2022-08-23T14:11:16.039Z,1.47
2022-08-23T14:13:44.936Z,1.70
2022-08-23T14:16:33.446Z,1.70
2022-08-23T14:19:54.851Z,1.57
2022-08-23T14:21:47.990Z,1.60
2022-08-23T14:24:14.786Z,1.70
2022-08-23T14:26:50.140Z,1.70
2022-08-23T14:29:19.729Z,1.80
2022-08-23T14:31:49.554Z,1.87
2022-08-23T14:34:16.099Z,1.70
2022-08-23T14:37:21.685Z,2.23
2022-08-23T14:39:29.339Z,1.80
2022-08-23T14:41:55.860Z,1.83
2022-08-23T14:44:22.382Z,1.60
2022-08-23T14:46:48.906Z,2.20
2022-08-23T14:49:15.593Z,2.00
2022-08-23T14:51:46.322Z,2.10
2022-08-23T14:54:23.027Z,2.03
2022-08-23T14:56:49.659Z,1.97
2022-08-23T14:59:16.357Z,1.47
2022-08-23T15:01:43.154Z,1.80
2022-08-23T15:04:09.744Z,1.80
2022-08-23T15:06:36.794Z,1.80
2022-08-23T15:09:03.813Z,1.70
2022-08-23T15:14:17.289Z,1.80
2022-08-23T15:16:43.858Z,1.60
2022-08-23T15:19:10.454Z,1.83
2022-08-23T15:21:37.033Z,1.60
2022-08-23T15:24:04.089Z,1.80
2022-08-23T15:26:31.860Z,1.90
2022-08-23T15:28:59.612Z,1.80
2022-08-23T15:31:26.920Z,1.80
2022-08-23T15:33:53.520Z,1.83
2022-08-23T15:36:20.132Z,1.90
2022-08-23T15:38:48.345Z,1.77
2022-08-23T15:41:16.978Z,2.03
2022-08-23T15:43:44.492Z,2.17
2022-08-23T15:46:16.426Z,1.63
2022-08-23T15:48:54.876Z,2.20
2022-08-23T15:51:23.121Z,2.07
2022-08-23T15:53:49.699Z,1.80
2022-08-23T15:56:27.618Z,1.73
2022-08-23T15:58:54.443Z,1.77
2022-08-23T16:01:24.664Z,2.40
2022-08-23T16:03:51.867Z,2.27
2022-08-23T16:06:18.382Z,2.13
2022-08-23T16:08:48.758Z,2.30
2022-08-23T16:11:15.366Z,2.03
2022-08-23T16:13:44.816Z,1.90
2022-08-23T16:16:14.463Z,1.97
2022-08-23T16:18:41.029Z,1.83
2022-08-23T16:21:08.062Z,1.90
2022-08-23T16:23:34.845Z,2.10
2022-08-23T16:26:01.604Z,2.10
2022-08-23T16:28:28.148Z,2.00
2022-08-23T16:30:54.757Z,1.73
2022-08-23T16:33:21.310Z,2.00
2022-08-23T16:35:47.781Z,1.70
2022-08-23T16:38:14.278Z,1.90
2022-08-23T16:40:40.762Z,1.70
2022-08-23T16:43:07.228Z,1.77
2022-08-23T16:45:33.793Z,1.83
2022-08-23T16:48:01.483Z,1.90
2022-08-23T16:50:28.169Z,1.83
2022-08-23T16:52:54.667Z,2.03
2022-08-23T16:55:21.417Z,1.80
2022-08-23T16:57:47.977Z,1.90
2022-08-23T17:00:15.416Z,1.67
2022-08-23T17:02:43.666Z,1.80
2022-08-23T17:05:14.561Z,1.80
2022-08-23T17:07:41.328Z,1.60
2022-08-23T17:10:09.758Z,1.90
2022-08-23T17:12:38.429Z,1.80
2022-08-23T17:15:07.340Z,2.00
2022-08-23T17:17:33.842Z,1.97
2022-08-23T17:20:00.521Z,2.03
2022-08-23T17:22:28.263Z,2.17
2022-08-23T17:24:54.753Z,1.90
2022-08-23T17:27:21.648Z,2.00
2022-08-23T17:29:48.210Z,1.70
2022-08-23T17:32:17.260Z,1.60
2022-08-23T17:34:43.775Z,1.93
2022-08-23T17:37:24.490Z,1.67
2022-08-23T17:39:51.510Z,2.07
2022-08-23T17:42:23.730Z,2.00
2022-08-23T17:44:50.234Z,1.90
2022-08-23T17:47:17.933Z,1.60
2022-08-23T17:49:46.530Z,1.63
2022-08-23T17:52:13.621Z,1.73
2022-08-23T17:54:40.491Z,1.80
2022-08-23T17:57:08.713Z,1.70
2022-08-23T17:59:35.573Z,1.73
2022-08-23T18:02:02.308Z,1.40
2022-08-23T18:04:28.873Z,2.23
2022-08-23T18:06:56.563Z,1.90
2022-08-23T18:09:23.151Z,2.00
2022-08-23T18:11:49.670Z,1.53
2022-08-23T18:14:16.945Z,1.70
2022-08-23T18:16:45.554Z,1.43
2022-08-23T18:19:13.454Z,1.50
2022-08-23T18:21:44.005Z,1.40
2022-08-23T18:24:10.612Z,1.87
2022-08-23T18:26:55.850Z,1.80
2022-08-23T18:29:22.768Z,1.80
2022-08-23T18:31:49.288Z,1.40
2022-08-23T18:34:16.133Z,1.50
2022-08-23T18:36:45.006Z,1.50
2022-08-23T18:39:13.773Z,2.07
2022-08-23T18:41:45.616Z,1.50
2022-08-23T18:44:12.751Z,1.83
2022-08-23T18:46:42.822Z,1.80
2022-08-23T18:49:11.435Z,1.53
2022-08-23T18:51:39.575Z,1.80
2022-08-23T18:54:06.883Z,1.70
2022-08-23T18:56:34.967Z,1.60
2022-08-23T18:59:02.211Z,1.60
2022-08-23T19:01:32.448Z,1.63
2022-08-23T19:04:00.375Z,2.00
2022-08-23T19:06:28.096Z,1.80
2022-08-23T19:08:55.313Z,1.90
2022-08-23T19:11:23.408Z,1.93
2022-08-23T19:13:51.156Z,1.80
2022-08-23T19:16:20.070Z,1.87
2022-08-23T19:18:49.027Z,1.93
2022-08-23T19:21:18.965Z,1.97
2022-08-23T19:23:47.091Z,1.70
2022-08-23T19:26:25.925Z,1.80
2022-08-23T19:28:53.015Z,1.90
2022-08-23T19:31:19.681Z,2.00
2022-08-23T19:33:47.238Z,1.93
2022-08-23T19:36:35.619Z,1.63
2022-08-23T19:39:00.377Z,1.63
2022-08-23T19:41:26.958Z,1.80
2022-08-23T19:43:53.543Z,2.10
2022-08-23T19:46:20.623Z,1.63
2022-08-23T19:48:48.187Z,1.87
2022-08-23T19:51:16.987Z,2.20
2022-08-23T19:54:03.748Z,1.93
2022-08-23T19:56:39.209Z,1.47
2022-08-23T19:59:08.885Z,1.97
2022-08-23T20:01:36.730Z,1.83
2022-08-23T20:04:03.905Z,1.87
2022-08-23T20:06:34.875Z,1.70
2022-08-23T20:09:01.642Z,1.80
2022-08-23T20:11:29.867Z,1.70
2022-08-23T20:13:57.060Z,1.70
2022-08-23T20:16:26.946Z,1.83
2022-08-23T20:18:55.339Z,2.00
2022-08-23T20:21:23.810Z,1.70
2022-08-23T20:24:04.328Z,1.83
2022-08-23T20:26:35.359Z,2.20
2022-08-23T20:29:22.335Z,2.10
2022-08-23T20:34:23.614Z,2.00
2022-08-23T20:36:55.942Z,2.00
2022-08-23T20:39:24.167Z,2.07
2022-08-23T20:41:52.334Z,2.07
2022-08-23T20:44:20.367Z,1.73
2022-08-23T20:46:50.728Z,1.73
2022-08-23T20:49:19.961Z,2.07
2022-08-23T20:51:46.630Z,1.83
2022-08-23T20:54:14.650Z,1.83
2022-08-23T20:56:41.227Z,1.90
2022-08-23T20:59:08.210Z,1.90
2022-08-23T21:01:35.686Z,1.90
2022-08-23T21:04:02.341Z,2.07
2022-08-23T21:06:31.231Z,2.13
2022-08-23T21:08:59.326Z,1.90
2022-08-23T21:11:28.285Z,2.30
2022-08-23T21:13:56.672Z,2.07
2022-08-23T21:16:24.010Z,1.90
2022-08-23T21:18:52.023Z,2.50
2022-08-23T21:21:21.990Z,2.17
2022-08-23T21:23:49.082Z,2.33
2022-08-23T21:26:16.069Z,1.90
2022-08-23T21:28:42.688Z,2.40
2022-08-23T21:31:32.085Z,1.97
2022-08-23T21:34:00.511Z,1.97
2022-08-23T21:36:27.937Z,2.53
2022-08-23T21:38:54.978Z,2.20
2022-08-23T21:41:33.187Z,2.50
2022-08-23T21:44:00.469Z,2.13
2022-08-23T21:46:27.170Z,2.17
2022-08-23T21:48:53.870Z,1.97
2022-08-23T21:51:25.788Z,2.00
2022-08-23T21:53:52.950Z,2.07
2022-08-23T21:56:20.843Z,2.20
2022-08-23T21:58:50.640Z,2.20
2022-08-23T22:01:18.785Z,2.00
2022-08-23T22:03:45.421Z,2.10
2022-08-23T22:06:16.818Z,2.10
2022-08-23T22:08:44.498Z,2.30
2022-08-23T22:11:12.442Z,2.23
2022-08-23T22:13:40.107Z,2.50
2022-08-23T22:16:07.218Z,2.27
2022-08-23T22:18:34.586Z,2.30
2022-08-23T22:21:01.749Z,2.40
2022-08-23T22:23:29.405Z,2.20
2022-08-23T22:25:57.745Z,1.87
2022-08-23T22:28:24.326Z,2.10
2022-08-23T22:30:51.373Z,2.40
2022-08-23T22:33:20.622Z,1.90
2022-08-23T22:35:48.906Z,2.30
2022-08-23T22:38:15.940Z,2.13
2022-08-23T22:40:52.710Z,2.00
2022-08-23T22:43:20.209Z,2.37
2022-08-23T22:45:54.363Z,2.00
2022-08-23T22:48:21.570Z,2.40
2022-08-23T22:50:48.588Z,1.90
2022-08-23T22:53:16.138Z,2.10
2022-08-23T22:55:42.634Z,2.10
2022-08-23T22:58:09.546Z,1.90
2022-08-23T23:00:41.953Z,2.50
2022-08-23T23:03:08.645Z,2.20
2022-08-23T23:05:37.305Z,2.20
2022-08-23T23:08:22.507Z,2.40
2022-08-23T23:10:49.001Z,1.90
2022-08-23T23:13:15.482Z,2.13
2022-08-23T23:15:42.025Z,1.93
2022-08-23T23:18:08.575Z,2.40
2022-08-23T23:20:39.228Z,2.13
2022-08-23T23:23:08.228Z,2.13
2022-08-23T23:25:34.919Z,2.00
2022-08-23T23:28:02.600Z,2.33
2022-08-23T23:30:29.744Z,2.10
2022-08-23T23:32:56.869Z,2.10
2022-08-23T23:35:23.562Z,2.40
2022-08-23T23:37:50.326Z,2.20
2022-08-23T23:40:17.356Z,1.60
2022-08-23T23:42:44.118Z,2.20
2022-08-23T23:45:11.618Z,2.07
2022-08-23T23:47:38.393Z,1.90
2022-08-23T23:50:06.582Z,2.03
2022-08-23T23:52:33.953Z,1.80
2022-08-23T23:55:03.551Z,1.70
2022-08-23T23:57:30.773Z,1.73
2022-08-23T23:59:57.300Z,1.93
